createdAt,value
2022-12-03T00:00:24.390Z,8.70
2022-12-03T00:01:56.428Z,8.90
2022-12-03T00:03:29.464Z,9.38
2022-12-03T00:05:01.815Z,11.25
2022-12-03T00:06:34.846Z,11.85
2022-12-03T00:08:07.208Z,11.40
2022-12-03T00:09:39.281Z,10.82
2022-12-03T00:11:11.277Z,10.32
2022-12-03T00:12:43.255Z,9.05
2022-12-03T00:14:15.411Z,9.95
2022-12-03T00:15:47.465Z,10.63
2022-12-03T00:17:19.557Z,10.05
2022-12-03T00:18:51.560Z,10.57
2022-12-03T00:20:24.924Z,10.13
2022-12-03T00:21:56.973Z,12.25
2022-12-03T00:23:29.014Z,9.10
2022-12-03T00:25:01.055Z,9.48
2022-12-03T00:26:33.072Z,9.00
2022-12-03T00:28:05.251Z,8.77
2022-12-03T00:29:37.292Z,10.55
2022-12-03T00:31:09.412Z,9.23
2022-12-03T00:32:41.561Z,8.32
2022-12-03T00:35:46.646Z,9.43
2022-12-03T00:37:18.958Z,8.40
2022-12-03T00:38:51.032Z,8.45
2022-12-03T00:40:23.080Z,10.85
2022-12-03T00:41:55.089Z,9.60
2022-12-03T00:43:27.152Z,10.45
2022-12-03T00:44:59.264Z,9.63
2022-12-03T00:46:31.668Z,9.52
2022-12-03T00:48:04.047Z,9.82
2022-12-03T00:49:36.383Z,7.88
2022-12-03T00:51:08.356Z,9.77
2022-12-03T00:52:40.488Z,9.52
2022-12-03T00:54:12.534Z,9.20
2022-12-03T00:55:44.859Z,9.48
2022-12-03T00:57:16.906Z,9.80
2022-12-03T00:58:48.861Z,10.70
2022-12-03T01:00:24.847Z,10.98
2022-12-03T01:01:57.360Z,10.70
2022-12-03T01:05:08.548Z,10.13
2022-12-03T01:06:40.642Z,11.40
2022-12-03T01:08:12.826Z,11.55
2022-12-03T01:09:44.861Z,11.40
2022-12-03T01:11:35.626Z,10.65
2022-12-03T01:13:07.734Z,12.55
2022-12-03T01:14:39.779Z,10.00
2022-12-03T01:16:11.954Z,11.07
2022-12-03T01:17:44.016Z,10.35
2022-12-03T01:19:19.813Z,10.23
2022-12-03T01:20:51.793Z,8.85
2022-12-03T01:22:23.867Z,11.02
2022-12-03T01:23:55.907Z,9.85
2022-12-03T01:25:27.971Z,10.77
2022-12-03T01:27:01.157Z,13.77
2022-12-03T01:28:33.187Z,11.25
2022-12-03T01:30:06.420Z,10.60
2022-12-03T01:31:56.826Z,10.18
2022-12-03T01:33:28.814Z,11.82
2022-12-03T01:35:00.972Z,11.27
2022-12-03T01:36:34.603Z,10.10
2022-12-03T01:39:38.580Z,10.77
2022-12-03T01:41:12.042Z,10.05
2022-12-03T01:44:23.299Z,9.77
2022-12-03T01:45:55.405Z,9.40
2022-12-03T01:47:37.475Z,9.32
2022-12-03T01:49:25.539Z,8.45
2022-12-03T01:50:57.603Z,10.75
2022-12-03T01:52:33.197Z,10.27
2022-12-03T01:54:05.302Z,11.75
2022-12-03T01:55:37.962Z,9.98
2022-12-03T01:57:23.294Z,10.53
2022-12-03T01:58:56.530Z,8.75
2022-12-03T02:00:29.458Z,10.50
2022-12-03T02:02:12.550Z,9.95
2022-12-03T02:03:45.995Z,9.67
2022-12-03T02:06:51.860Z,9.38
2022-12-03T02:08:42.039Z,10.40
2022-12-03T02:10:15.518Z,9.02
2022-12-03T02:11:49.339Z,8.50
2022-12-03T02:13:21.330Z,8.50
2022-12-03T02:14:54.010Z,11.50
2022-12-03T02:16:26.341Z,9.95
2022-12-03T02:17:58.477Z,10.13
2022-12-03T02:19:30.596Z,10.48
2022-12-03T02:21:14.364Z,8.43
2022-12-03T02:23:08.067Z,8.80
2022-12-03T02:24:54.545Z,9.53
2022-12-03T02:26:26.741Z,11.18
2022-12-03T02:28:00.598Z,8.38
2022-12-03T02:29:32.686Z,9.90
2022-12-03T02:31:05.644Z,9.55
2022-12-03T02:32:38.005Z,10.05
2022-12-03T02:34:11.291Z,10.27
2022-12-03T02:35:43.439Z,9.63
2022-12-03T02:37:22.438Z,9.48
2022-12-03T02:38:54.497Z,10.35
2022-12-03T02:40:29.168Z,9.43
2022-12-03T02:42:19.803Z,8.75
2022-12-03T02:43:54.200Z,9.73
2022-12-03T02:45:33.132Z,10.05
2022-12-03T02:47:05.297Z,9.23
2022-12-03T02:48:39.034Z,9.75
2022-12-03T02:50:13.835Z,10.00
2022-12-03T02:51:45.940Z,9.45
2022-12-03T02:53:22.228Z,8.82
2022-12-03T02:54:57.512Z,9.52
2022-12-03T02:56:32.325Z,9.68
2022-12-03T02:58:04.922Z,10.65
2022-12-03T02:59:36.941Z,9.90
2022-12-03T03:01:09.988Z,9.80
2022-12-03T03:02:42.464Z,10.25
2022-12-03T03:04:14.530Z,12.43
2022-12-03T03:05:47.423Z,9.60
2022-12-03T03:07:19.384Z,11.40
2022-12-03T03:10:29.174Z,7.88
2022-12-03T03:12:01.246Z,9.68
2022-12-03T03:13:34.514Z,10.30
2022-12-03T03:15:07.853Z,8.13
2022-12-03T03:16:40.015Z,9.52
2022-12-03T03:18:13.927Z,9.07
2022-12-03T03:19:46.049Z,10.60
2022-12-03T03:21:18.138Z,9.05
2022-12-03T03:22:50.115Z,9.70
2022-12-03T03:24:22.949Z,9.70
2022-12-03T03:26:06.177Z,9.27
2022-12-03T03:27:39.388Z,9.98
2022-12-03T03:29:11.484Z,9.50
2022-12-03T03:30:44.294Z,9.40
2022-12-03T03:32:16.365Z,10.25
2022-12-03T03:33:50.238Z,9.65
2022-12-03T03:35:24.031Z,10.05
2022-12-03T03:36:56.188Z,9.88
2022-12-03T03:39:59.970Z,10.20
2022-12-03T03:41:33.376Z,10.35
2022-12-03T03:43:06.001Z,12.43
2022-12-03T03:44:37.950Z,10.17
2022-12-03T03:46:11.218Z,13.13
2022-12-03T03:47:43.313Z,11.07
2022-12-03T03:49:15.572Z,12.00
2022-12-03T03:50:47.871Z,10.75
2022-12-03T03:52:20.275Z,10.68
2022-12-03T03:53:52.522Z,11.15
2022-12-03T03:55:24.600Z,12.07
2022-12-03T03:56:56.749Z,11.60
2022-12-03T03:58:28.720Z,8.52
2022-12-03T04:00:05.232Z,8.95
2022-12-03T04:01:37.492Z,12.85
2022-12-03T04:03:10.451Z,11.63
2022-12-03T04:04:43.486Z,13.75
2022-12-03T04:06:15.537Z,11.80
2022-12-03T04:07:47.717Z,12.40
2022-12-03T04:09:19.718Z,11.50
2022-12-03T04:11:10.072Z,13.85
2022-12-03T04:12:57.378Z,11.60
2022-12-03T04:14:29.694Z,12.57
2022-12-03T04:16:01.775Z,12.95
2022-12-03T04:17:33.757Z,11.95
2022-12-03T04:19:05.740Z,12.15
2022-12-03T04:20:40.832Z,12.65
2022-12-03T04:22:31.667Z,13.38
2022-12-03T04:24:04.305Z,14.65
2022-12-03T04:25:54.786Z,13.50
2022-12-03T04:27:45.517Z,12.85
2022-12-03T04:29:17.650Z,14.45
2022-12-03T04:30:49.661Z,13.43
2022-12-03T04:32:40.177Z,13.38
2022-12-03T04:34:30.998Z,14.40
2022-12-03T04:36:03.021Z,13.82
2022-12-03T04:37:34.941Z,15.65
2022-12-03T04:39:07.032Z,16.65
2022-12-03T04:40:58.357Z,14.82
2022-12-03T04:42:30.516Z,13.70
2022-12-03T04:44:20.857Z,14.60
2022-12-03T04:45:52.898Z,16.05
2022-12-03T04:47:25.030Z,14.68
2022-12-03T04:48:57.069Z,12.65
2022-12-03T04:50:29.077Z,15.10
2022-12-03T04:52:01.275Z,12.80
2022-12-03T04:53:36.104Z,13.95
2022-12-03T04:55:08.869Z,14.05
2022-12-03T04:56:40.908Z,12.43
2022-12-03T04:58:13.029Z,12.45
2022-12-03T04:59:45.043Z,13.10
2022-12-03T05:01:17.268Z,11.73
2022-12-03T05:02:49.385Z,10.75
2022-12-03T05:04:21.477Z,10.48
2022-12-03T05:05:53.476Z,11.38
2022-12-03T05:07:25.472Z,11.15
2022-12-03T05:08:57.501Z,13.05
2022-12-03T05:10:29.551Z,11.27
2022-12-03T05:12:01.558Z,13.32
2022-12-03T05:13:33.790Z,11.18
2022-12-03T05:15:06.581Z,12.65
2022-12-03T05:16:39.248Z,12.20
2022-12-03T05:18:12.903Z,11.35
2022-12-03T05:20:03.588Z,12.82
2022-12-03T05:21:36.037Z,12.57
2022-12-03T05:23:13.068Z,12.82
2022-12-03T05:24:45.101Z,11.27
2022-12-03T05:26:17.065Z,11.23
2022-12-03T05:27:49.193Z,11.45
2022-12-03T05:29:21.254Z,9.95
2022-12-03T05:30:53.339Z,12.30
2022-12-03T05:32:25.355Z,13.10
2022-12-03T05:33:57.361Z,12.70
2022-12-03T05:35:29.545Z,11.77
2022-12-03T05:37:01.700Z,11.40
2022-12-03T05:38:34.044Z,10.27
2022-12-03T05:40:06.866Z,11.80
2022-12-03T05:41:57.205Z,10.07
2022-12-03T05:43:29.397Z,12.25
2022-12-03T05:45:01.509Z,24.20
2022-12-03T05:46:33.985Z,57.50
2022-12-03T05:48:08.367Z,35.67
2022-12-03T05:49:40.476Z,48.75
2022-12-03T05:51:12.607Z,24.70
2022-12-03T05:52:44.863Z,19.60
2022-12-03T05:54:16.918Z,18.95
2022-12-03T05:55:49.071Z,12.98
2022-12-03T05:57:21.123Z,11.80
2022-12-03T05:58:53.198Z,11.35
2022-12-03T06:00:34.595Z,10.75
2022-12-03T06:02:09.842Z,12.98
2022-12-03T06:03:42.052Z,10.27
2022-12-03T06:05:15.731Z,11.57
2022-12-03T06:06:47.768Z,11.80
2022-12-03T06:08:19.739Z,10.63
2022-12-03T06:09:51.780Z,12.45
2022-12-03T06:11:23.900Z,12.63
2022-12-03T06:12:56.292Z,9.85
2022-12-03T06:14:30.487Z,12.38
2022-12-03T06:16:02.512Z,10.15
2022-12-03T06:17:34.614Z,11.48
2022-12-03T06:19:06.799Z,12.07
2022-12-03T06:20:38.901Z,12.55
2022-12-03T06:23:45.693Z,12.52
2022-12-03T06:25:17.807Z,13.05
2022-12-03T06:26:49.866Z,11.85
2022-12-03T06:28:21.860Z,12.55
2022-12-03T06:29:53.895Z,14.15
2022-12-03T06:31:25.856Z,12.95
2022-12-03T06:32:58.128Z,11.95
2022-12-03T06:34:30.107Z,12.20
2022-12-03T06:36:02.141Z,14.75
2022-12-03T06:37:34.149Z,13.80
2022-12-03T06:39:06.205Z,12.23
2022-12-03T06:40:38.739Z,14.20
2022-12-03T06:42:10.689Z,12.32
2022-12-03T06:43:42.738Z,11.98
2022-12-03T06:45:14.855Z,13.10
2022-12-03T06:46:46.948Z,12.35
2022-12-03T06:48:19.017Z,13.18
2022-12-03T06:49:51.037Z,13.70
2022-12-03T06:51:23.134Z,12.70
2022-12-03T06:52:55.376Z,10.77
2022-12-03T06:54:27.546Z,12.30
2022-12-03T06:55:59.580Z,11.30
2022-12-03T06:57:31.596Z,12.25
2022-12-03T06:59:03.793Z,11.43
2022-12-03T07:00:35.927Z,13.52
2022-12-03T07:02:08.200Z,13.85
2022-12-03T07:03:40.316Z,14.80
2022-12-03T07:05:12.343Z,16.23
2022-12-03T07:06:44.601Z,13.70
2022-12-03T07:08:16.721Z,14.48
2022-12-03T07:09:48.745Z,12.88
2022-12-03T07:11:32.666Z,13.85
2022-12-03T07:13:04.892Z,12.38
2022-12-03T07:14:36.915Z,15.95
2022-12-03T07:16:09.062Z,11.68
2022-12-03T07:17:41.162Z,12.82
2022-12-03T07:19:13.307Z,15.07
2022-12-03T07:22:39.163Z,14.10
2022-12-03T07:24:11.435Z,12.95
2022-12-03T07:25:43.456Z,11.98
2022-12-03T07:27:15.584Z,13.98
2022-12-03T07:28:48.568Z,14.02
2022-12-03T07:30:20.682Z,14.63
2022-12-03T07:31:52.777Z,16.02
2022-12-03T07:33:24.924Z,17.42
2022-12-03T07:34:56.950Z,13.48
2022-12-03T07:36:29.116Z,15.90
2022-12-03T07:38:01.227Z,14.90
2022-12-03T07:39:33.320Z,16.85
2022-12-03T07:41:05.791Z,15.15
2022-12-03T07:42:37.906Z,14.88
2022-12-03T07:44:14.282Z,14.63
2022-12-03T07:45:46.890Z,15.98
2022-12-03T07:47:19.299Z,12.75
2022-12-03T07:48:51.328Z,13.10
2022-12-03T07:50:23.391Z,14.82
2022-12-03T07:51:56.442Z,14.55
2022-12-03T07:53:28.506Z,13.25
2022-12-03T07:56:44.218Z,14.07
2022-12-03T07:58:16.218Z,16.05
2022-12-03T07:59:48.209Z,12.13
2022-12-03T08:01:20.309Z,13.02
2022-12-03T08:02:52.457Z,12.43
2022-12-03T08:04:24.549Z,14.02
2022-12-03T08:05:56.588Z,14.90
2022-12-03T08:07:28.705Z,16.02
2022-12-03T08:09:00.895Z,12.43
2022-12-03T08:10:32.996Z,13.23
2022-12-03T08:12:09.023Z,10.85
2022-12-03T08:13:41.133Z,12.43
2022-12-03T08:15:16.347Z,12.85
2022-12-03T08:16:49.096Z,12.15
2022-12-03T08:18:22.317Z,11.93
2022-12-03T08:19:54.387Z,12.05
2022-12-03T08:21:37.112Z,11.93
2022-12-03T08:23:17.653Z,10.82
2022-12-03T08:24:49.641Z,13.45
2022-12-03T08:26:26.550Z,11.77
2022-12-03T08:28:19.722Z,12.35
2022-12-03T08:30:05.064Z,12.55
2022-12-03T08:31:37.582Z,13.18
2022-12-03T08:33:24.667Z,12.23
2022-12-03T08:34:56.656Z,13.35
2022-12-03T08:36:33.659Z,12.27
2022-12-03T08:38:14.863Z,11.73
2022-12-03T08:39:50.972Z,11.50
2022-12-03T08:41:42.250Z,12.60
2022-12-03T08:43:24.777Z,12.15
2022-12-03T08:44:57.182Z,11.82
2022-12-03T08:46:29.391Z,10.77
2022-12-03T08:48:04.819Z,12.00
2022-12-03T08:49:37.495Z,10.52
2022-12-03T08:51:18.769Z,11.10
2022-12-03T08:52:50.821Z,11.73
2022-12-03T08:54:23.375Z,11.02
2022-12-03T08:55:57.613Z,13.02
2022-12-03T08:57:33.808Z,10.90
2022-12-03T08:59:20.686Z,13.13
2022-12-03T09:00:57.505Z,11.85
2022-12-03T09:02:33.410Z,13.60
2022-12-03T09:04:35.349Z,13.20
2022-12-03T09:06:07.773Z,12.15
2022-12-03T09:07:39.781Z,11.82
2022-12-03T09:09:11.880Z,11.10
2022-12-03T09:10:44.045Z,12.13
2022-12-03T09:12:16.184Z,13.38
2022-12-03T09:13:48.421Z,11.20
2022-12-03T09:15:20.508Z,10.50
2022-12-03T09:16:56.211Z,13.15
2022-12-03T09:18:28.415Z,12.52
2022-12-03T09:20:00.457Z,13.73
2022-12-03T09:21:33.246Z,13.77
2022-12-03T09:23:05.290Z,12.23
2022-12-03T09:26:15.230Z,13.27
2022-12-03T09:27:47.218Z,11.88
2022-12-03T09:29:19.447Z,11.55
2022-12-03T09:30:51.479Z,15.82
2022-12-03T09:32:23.714Z,12.20
2022-12-03T09:33:56.003Z,13.23
2022-12-03T09:35:28.437Z,13.15
2022-12-03T09:37:00.864Z,13.45
2022-12-03T09:38:33.147Z,13.02
2022-12-03T09:40:06.777Z,16.88
2022-12-03T09:43:11.946Z,13.18
2022-12-03T09:44:44.282Z,12.25
2022-12-03T09:46:16.697Z,11.35
2022-12-03T09:47:49.825Z,13.38
2022-12-03T09:49:22.026Z,15.07
2022-12-03T09:50:54.043Z,12.15
2022-12-03T09:52:27.924Z,12.93
2022-12-03T09:54:02.350Z,12.32
2022-12-03T09:55:34.335Z,15.07
2022-12-03T09:57:07.425Z,12.75
2022-12-03T09:58:39.489Z,11.52
2022-12-03T10:00:24.597Z,14.40
2022-12-03T10:01:56.671Z,14.75
2022-12-03T10:03:30.608Z,15.05
2022-12-03T10:05:02.708Z,14.75
2022-12-03T10:06:34.902Z,12.90
2022-12-03T10:08:12.556Z,11.40
2022-12-03T10:09:44.675Z,11.93
2022-12-03T10:11:18.207Z,12.60
2022-12-03T10:14:23.469Z,15.05
2022-12-03T10:15:57.103Z,19.30
2022-12-03T10:19:01.757Z,12.00
2022-12-03T10:20:33.800Z,12.27
2022-12-03T10:22:05.858Z,13.18
2022-12-03T10:25:13.855Z,15.50
2022-12-03T10:26:47.171Z,12.27
2022-12-03T10:28:34.051Z,12.63
2022-12-03T10:30:19.967Z,11.48
2022-12-03T10:31:59.537Z,13.02
2022-12-03T10:33:34.544Z,12.38
2022-12-03T10:35:15.695Z,10.80
2022-12-03T10:36:47.771Z,11.75
2022-12-03T10:38:23.520Z,10.50
2022-12-03T10:40:00.713Z,12.25
2022-12-03T10:41:32.823Z,12.88
2022-12-03T10:43:20.125Z,11.15
2022-12-03T10:45:22.949Z,12.20
2022-12-03T10:47:27.217Z,10.98
2022-12-03T10:49:17.525Z,11.27
2022-12-03T10:51:02.638Z,10.00
2022-12-03T10:52:34.737Z,12.38
2022-12-03T10:54:19.402Z,9.43
2022-12-03T10:55:52.395Z,10.43
2022-12-03T10:57:24.506Z,10.50
2022-12-03T10:58:56.708Z,10.20
2022-12-03T11:00:28.909Z,10.32
2022-12-03T11:02:04.072Z,10.02
2022-12-03T11:03:36.965Z,10.52
2022-12-03T11:05:17.423Z,10.13
2022-12-03T11:06:50.712Z,10.70
2022-12-03T11:08:25.593Z,9.07
2022-12-03T11:09:59.290Z,17.58
2022-12-03T11:11:31.690Z,12.40
2022-12-03T11:13:34.808Z,11.40
2022-12-03T11:15:07.817Z,9.65
2022-12-03T11:16:39.938Z,10.63
2022-12-03T11:18:12.091Z,10.63
2022-12-03T11:19:46.598Z,8.45
2022-12-03T11:21:18.768Z,10.75
2022-12-03T11:24:22.694Z,10.57
2022-12-03T11:25:54.763Z,9.45
2022-12-03T11:27:26.963Z,10.18
2022-12-03T11:28:59.858Z,12.82
2022-12-03T11:30:53.687Z,9.05
2022-12-03T11:32:44.108Z,13.32
2022-12-03T11:34:19.750Z,10.02
2022-12-03T11:36:04.002Z,10.38
2022-12-03T11:37:36.136Z,10.43
2022-12-03T11:39:08.882Z,11.05
2022-12-03T11:40:40.955Z,9.75
2022-12-03T11:42:28.060Z,10.35
2022-12-03T11:44:03.235Z,11.27
2022-12-03T11:45:37.934Z,10.82
2022-12-03T11:47:15.042Z,10.93
2022-12-03T11:48:48.044Z,9.57
2022-12-03T11:50:23.809Z,8.45
2022-12-03T11:51:56.787Z,11.00
2022-12-03T11:53:31.809Z,10.18
2022-12-03T11:55:22.013Z,11.65
2022-12-03T11:56:54.774Z,11.57
2022-12-03T11:58:29.435Z,12.65
2022-12-03T12:00:22.582Z,12.75
2022-12-03T12:01:54.590Z,12.77
2022-12-03T12:03:26.698Z,13.32
2022-12-03T12:05:19.226Z,14.00
2022-12-03T12:06:53.440Z,11.48
2022-12-03T12:08:25.696Z,11.95
2022-12-03T12:09:58.122Z,12.95
2022-12-03T12:11:39.111Z,11.68
2022-12-03T12:13:34.218Z,12.18
2022-12-03T12:15:38.239Z,11.32
2022-12-03T12:17:32.660Z,11.77
2022-12-03T12:19:31.034Z,11.43
2022-12-03T12:21:43.405Z,12.30
2022-12-03T12:23:23.532Z,12.65
2022-12-03T12:25:02.979Z,13.23
2022-12-03T12:26:34.992Z,12.07
2022-12-03T12:28:07.535Z,11.95
2022-12-03T12:29:40.866Z,11.32
2022-12-03T12:31:13.034Z,12.13
2022-12-03T12:32:48.066Z,11.35
2022-12-03T12:34:20.087Z,13.07
2022-12-03T12:35:52.197Z,13.48
2022-12-03T12:37:44.934Z,10.07
2022-12-03T12:39:19.222Z,11.15
2022-12-03T12:40:51.407Z,13.52
2022-12-03T12:42:32.454Z,12.80
2022-12-03T12:44:13.681Z,13.85
2022-12-03T12:45:46.379Z,11.50
2022-12-03T12:47:18.442Z,12.17
2022-12-03T12:48:50.466Z,9.32
2022-12-03T12:50:22.585Z,12.32
2022-12-03T12:51:54.684Z,11.38
2022-12-03T12:53:29.917Z,12.20
2022-12-03T12:55:05.143Z,11.95
2022-12-03T12:56:37.864Z,12.43
2022-12-03T12:58:17.025Z,12.38
2022-12-03T12:59:49.669Z,10.75
2022-12-03T13:01:22.852Z,11.20
2022-12-03T13:02:59.529Z,13.10
2022-12-03T13:04:31.613Z,10.13
2022-12-03T13:06:04.156Z,10.35
2022-12-03T13:07:36.331Z,11.32
2022-12-03T13:09:20.814Z,9.65
2022-12-03T13:11:03.191Z,9.93
2022-12-03T13:12:35.141Z,11.60
2022-12-03T13:14:24.444Z,10.52
2022-12-03T13:16:41.567Z,11.60
2022-12-03T13:18:19.651Z,9.80
2022-12-03T13:20:01.940Z,10.32
2022-12-03T13:21:43.389Z,9.38
2022-12-03T13:23:35.209Z,9.65
2022-12-03T13:25:58.170Z,10.73
2022-12-03T13:27:31.428Z,10.15
2022-12-03T13:29:07.645Z,9.98
2022-12-03T13:30:39.644Z,10.65
2022-12-03T13:32:15.454Z,11.35
2022-12-03T13:33:47.637Z,11.85
2022-12-03T13:35:35.834Z,11.25
2022-12-03T13:37:14.731Z,11.90
2022-12-03T13:38:47.128Z,10.40
2022-12-03T13:40:36.207Z,10.25
2022-12-03T13:42:42.060Z,10.60
2022-12-03T13:44:17.299Z,10.50
2022-12-03T13:45:50.406Z,12.05
2022-12-03T13:47:25.683Z,12.23
2022-12-03T13:49:01.722Z,11.15
2022-12-03T13:50:42.200Z,11.48
2022-12-03T13:52:17.697Z,12.10
2022-12-03T13:53:49.805Z,11.27
2022-12-03T13:55:32.192Z,10.27
2022-12-03T13:57:06.204Z,11.73
2022-12-03T13:58:38.372Z,11.55
2022-12-03T14:00:11.424Z,12.82
2022-12-03T14:01:44.928Z,11.90
2022-12-03T14:03:17.080Z,12.05
2022-12-03T14:04:49.188Z,11.88
2022-12-03T14:06:21.926Z,12.98
2022-12-03T14:07:54.097Z,12.32
2022-12-03T14:09:26.131Z,15.00
2022-12-03T14:11:00.588Z,12.48
2022-12-03T14:12:34.177Z,12.07
2022-12-03T14:14:06.353Z,12.63
2022-12-03T14:15:38.460Z,15.15
2022-12-03T14:17:11.910Z,14.10
2022-12-03T14:20:16.146Z,12.90
2022-12-03T14:21:48.208Z,14.63
2022-12-03T14:23:20.272Z,15.27
2022-12-03T14:24:53.265Z,15.18
2022-12-03T14:26:25.306Z,13.75
2022-12-03T14:27:57.524Z,14.82
2022-12-03T14:29:29.745Z,13.70
2022-12-03T14:31:01.837Z,18.08
2022-12-03T14:32:33.943Z,12.20
2022-12-03T14:34:06.102Z,13.73
2022-12-03T14:35:38.228Z,14.13
2022-12-03T14:37:10.564Z,15.23
2022-12-03T14:38:42.680Z,13.15
2022-12-03T14:40:19.743Z,13.45
2022-12-03T14:42:12.010Z,15.63
2022-12-03T14:43:44.085Z,15.50
2022-12-03T14:45:16.122Z,16.13
2022-12-03T14:46:51.580Z,15.13
2022-12-03T14:48:26.025Z,16.25
2022-12-03T14:49:58.124Z,17.02
2022-12-03T14:53:02.000Z,15.52
2022-12-03T14:54:34.359Z,14.38
2022-12-03T14:56:06.487Z,13.90
2022-12-03T14:57:38.585Z,14.85
2022-12-03T14:59:10.953Z,15.43
2022-12-03T15:00:43.078Z,15.85
2022-12-03T15:02:15.152Z,17.48
2022-12-03T15:03:47.238Z,13.88
2022-12-03T15:05:28.043Z,16.65
2022-12-03T15:07:00.738Z,15.43
2022-12-03T15:08:32.813Z,14.55
2022-12-03T15:10:06.559Z,15.80
2022-12-03T15:11:42.969Z,17.80
2022-12-03T15:13:17.932Z,16.80
2022-12-03T15:14:50.383Z,14.38
2022-12-03T15:16:22.471Z,15.98
2022-12-03T15:17:54.612Z,17.77
2022-12-03T15:19:26.823Z,12.68
2022-12-03T15:21:02.456Z,14.57
2022-12-03T15:22:34.500Z,13.02
2022-12-03T15:24:06.971Z,15.45
2022-12-03T15:25:39.043Z,15.93
2022-12-03T15:27:11.094Z,17.40
2022-12-03T15:28:48.049Z,14.48
2022-12-03T15:30:21.051Z,13.52
2022-12-03T15:31:53.201Z,13.50
2022-12-03T15:33:26.030Z,13.63
2022-12-03T15:34:58.530Z,15.90
2022-12-03T15:36:33.573Z,12.80
2022-12-03T15:38:05.798Z,13.80
2022-12-03T15:39:38.931Z,14.23
2022-12-03T15:41:24.963Z,16.23
2022-12-03T15:42:57.053Z,16.02
2022-12-03T15:44:29.045Z,14.93
2022-12-03T15:46:01.114Z,12.77
2022-12-03T15:47:33.952Z,13.93
2022-12-03T15:49:06.131Z,14.85
2022-12-03T15:50:40.308Z,11.82
2022-12-03T15:52:12.618Z,15.93
2022-12-03T15:53:44.681Z,13.63
2022-12-03T15:55:17.012Z,12.82
2022-12-03T15:56:52.778Z,20.08
2022-12-03T15:58:29.246Z,13.13
2022-12-03T16:00:01.345Z,13.27
2022-12-03T16:01:33.504Z,14.60
2022-12-03T16:03:06.793Z,13.23
2022-12-03T16:04:38.812Z,15.48
2022-12-03T16:06:10.880Z,13.52
2022-12-03T16:07:43.103Z,14.75
2022-12-03T16:09:15.169Z,14.75
2022-12-03T16:10:48.331Z,15.07
2022-12-03T16:12:20.399Z,13.07
2022-12-03T16:13:52.464Z,15.20
2022-12-03T16:15:27.275Z,15.07
2022-12-03T16:17:00.485Z,14.85
2022-12-03T16:18:32.557Z,13.60
2022-12-03T16:20:05.595Z,15.85
2022-12-03T16:21:37.662Z,15.85
2022-12-03T16:23:09.853Z,14.75
2022-12-03T16:24:41.892Z,17.00
2022-12-03T16:26:13.855Z,17.45
2022-12-03T16:27:45.904Z,14.85
2022-12-03T16:29:18.053Z,17.15
2022-12-03T16:30:50.131Z,16.58
2022-12-03T16:32:22.695Z,16.52
2022-12-03T16:33:55.145Z,18.70
2022-12-03T16:35:27.218Z,19.45
2022-12-03T16:36:59.293Z,18.23
2022-12-03T16:38:31.442Z,16.88
2022-12-03T16:40:06.112Z,15.63
2022-12-03T16:41:38.168Z,18.10
2022-12-03T16:43:10.995Z,17.92
2022-12-03T16:45:15.243Z,17.55
2022-12-03T16:46:47.554Z,16.25
2022-12-03T16:48:19.672Z,15.18
2022-12-03T16:49:52.116Z,16.02
2022-12-03T16:51:26.192Z,15.67
2022-12-03T16:52:58.512Z,15.80
2022-12-03T16:54:30.605Z,16.75
2022-12-03T16:56:02.774Z,16.52
2022-12-03T16:57:34.832Z,15.32
2022-12-03T16:59:06.885Z,18.67
2022-12-03T17:00:38.999Z,14.82
2022-12-03T17:02:11.919Z,14.25
2022-12-03T17:03:44.026Z,14.82
2022-12-03T17:06:49.068Z,15.37
2022-12-03T17:08:21.542Z,12.93
2022-12-03T17:09:53.910Z,12.23
2022-12-03T17:11:26.174Z,13.00
2022-12-03T17:13:09.268Z,16.13
2022-12-03T17:14:41.942Z,14.98
2022-12-03T17:16:14.455Z,12.05
2022-12-03T17:17:46.587Z,13.53
2022-12-03T17:19:18.706Z,12.65
2022-12-03T17:20:50.904Z,12.27
2022-12-03T17:22:22.993Z,13.05
2022-12-03T17:23:54.985Z,11.98
2022-12-03T17:25:27.876Z,12.50
2022-12-03T17:26:59.858Z,13.77
2022-12-03T17:28:31.981Z,13.07
2022-12-03T17:30:05.446Z,15.10
2022-12-03T17:31:41.901Z,12.43
2022-12-03T17:33:14.607Z,13.73
2022-12-03T17:34:46.643Z,15.00
2022-12-03T17:36:21.565Z,12.82
2022-12-03T17:37:53.716Z,15.23
2022-12-03T17:39:25.757Z,14.13
2022-12-03T17:40:57.953Z,12.60
2022-12-03T17:42:29.984Z,12.20
2022-12-03T17:44:07.281Z,16.80
2022-12-03T17:45:43.673Z,13.90
2022-12-03T17:47:15.777Z,13.32
2022-12-03T17:48:47.892Z,15.23
2022-12-03T17:50:19.918Z,13.13
2022-12-03T17:51:51.973Z,14.07
2022-12-03T17:53:24.777Z,14.15
2022-12-03T17:55:17.790Z,13.82
2022-12-03T17:56:49.742Z,12.57
2022-12-03T17:58:22.020Z,14.25
2022-12-03T17:59:54.196Z,16.40
2022-12-03T18:01:26.655Z,14.30
2022-12-03T18:02:58.706Z,13.75
2022-12-03T18:04:30.833Z,14.02
2022-12-03T18:06:03.871Z,12.95
2022-12-03T18:07:35.995Z,16.80
2022-12-03T18:10:39.776Z,15.00
2022-12-03T18:12:11.842Z,15.10
2022-12-03T18:13:43.987Z,14.18
2022-12-03T18:15:16.104Z,14.32
2022-12-03T18:16:48.133Z,16.45
2022-12-03T18:18:20.225Z,12.90
2022-12-03T18:19:52.664Z,14.00
2022-12-03T18:21:27.556Z,14.23
2022-12-03T18:22:59.861Z,12.90
2022-12-03T18:24:31.881Z,13.27
2022-12-03T18:26:04.823Z,14.40
2022-12-03T18:27:36.906Z,13.82
2022-12-03T18:29:08.999Z,14.77
2022-12-03T18:30:41.056Z,14.45
2022-12-03T18:32:27.716Z,14.43
2022-12-03T18:34:01.354Z,14.88
2022-12-03T18:35:33.364Z,12.32
2022-12-03T18:37:06.240Z,14.43
2022-12-03T18:40:20.421Z,13.27
2022-12-03T18:41:53.371Z,12.63
2022-12-03T18:43:26.809Z,15.00
2022-12-03T18:44:58.869Z,15.68
2022-12-03T18:46:52.273Z,15.98
2022-12-03T18:48:22.830Z,14.68
2022-12-03T18:49:55.499Z,14.07
2022-12-03T18:51:28.979Z,14.38
2022-12-03T18:53:00.953Z,13.77
2022-12-03T18:54:33.167Z,14.85
2022-12-03T18:56:05.464Z,15.13
2022-12-03T18:57:37.493Z,14.00
2022-12-03T18:59:09.618Z,14.10
2022-12-03T19:00:42.803Z,13.23
2022-12-03T19:04:13.626Z,15.32
2022-12-03T19:05:45.706Z,15.48
2022-12-03T19:07:17.714Z,14.02
2022-12-03T19:08:54.267Z,19.23
2022-12-03T19:10:26.490Z,15.45
2022-12-03T19:11:58.827Z,13.30
2022-12-03T19:13:30.911Z,13.20
2022-12-03T19:15:03.903Z,11.85
2022-12-03T19:16:36.481Z,13.23
2022-12-03T19:18:08.716Z,15.10
2022-12-03T19:19:40.697Z,14.02
2022-12-03T19:21:16.102Z,14.32
2022-12-03T19:22:48.215Z,12.95
2022-12-03T19:24:25.033Z,14.70
2022-12-03T19:25:59.521Z,13.60
2022-12-03T19:27:32.510Z,13.10
2022-12-03T19:29:04.695Z,12.48
2022-12-03T19:30:36.755Z,13.52
2022-12-03T19:32:09.243Z,13.77
2022-12-03T19:33:42.970Z,13.30
2022-12-03T19:35:14.999Z,13.27
2022-12-03T19:36:47.755Z,13.90
2022-12-03T19:38:19.778Z,14.00
2022-12-03T19:39:54.829Z,14.32
2022-12-03T19:41:28.906Z,13.57
2022-12-03T19:43:01.051Z,13.18
2022-12-03T19:44:33.778Z,15.05
2022-12-03T19:46:10.901Z,13.02
2022-12-03T19:47:43.160Z,13.02
2022-12-03T19:49:17.069Z,13.52
2022-12-03T19:51:07.631Z,14.02
2022-12-03T19:52:43.310Z,14.90
2022-12-03T19:54:15.620Z,14.50
2022-12-03T19:55:47.900Z,13.70
2022-12-03T19:57:23.410Z,13.93
2022-12-03T19:58:56.243Z,15.10
2022-12-03T20:00:28.238Z,19.75
2022-12-03T20:02:00.657Z,18.77
2022-12-03T20:03:32.965Z,18.70
2022-12-03T20:05:05.227Z,16.95
2022-12-03T20:06:40.647Z,18.17
2022-12-03T20:08:12.782Z,19.00
2022-12-03T20:09:44.814Z,19.55
2022-12-03T20:11:22.794Z,19.17
2022-12-03T20:12:54.850Z,17.20
2022-12-03T20:14:26.930Z,18.00
2022-12-03T20:16:03.560Z,18.40
2022-12-03T20:17:35.634Z,18.02
2022-12-03T20:19:08.739Z,20.25
2022-12-03T20:20:40.810Z,19.70
2022-12-03T20:22:12.900Z,17.38
2022-12-03T20:23:45.237Z,20.58
2022-12-03T20:25:17.382Z,14.70
2022-12-03T20:26:49.377Z,17.40
2022-12-03T20:28:21.402Z,20.23
2022-12-03T20:29:53.620Z,17.50
2022-12-03T20:31:28.609Z,18.20
2022-12-03T20:33:00.589Z,19.45
2022-12-03T20:34:34.397Z,17.73
2022-12-03T20:36:07.108Z,16.27
2022-12-03T20:37:39.189Z,15.32
2022-12-03T20:39:11.248Z,16.15
2022-12-03T20:40:43.224Z,16.52
2022-12-03T20:42:15.306Z,16.42
2022-12-03T20:43:47.764Z,19.15
2022-12-03T20:45:19.819Z,17.42
2022-12-03T20:46:51.903Z,13.80
2022-12-03T20:48:24.043Z,13.15
2022-12-03T20:49:56.238Z,14.63
2022-12-03T20:51:30.551Z,13.13
2022-12-03T20:53:23.759Z,12.45
2022-12-03T20:54:54.608Z,11.48
2022-12-03T20:56:32.159Z,13.93
2022-12-03T20:58:04.391Z,14.25
2022-12-03T20:59:36.586Z,11.27